Gaborone, Botswana

4:36 AM CAT on February 14, 2016 (GMT +0200)
Tlokweng | | Change Station
CLOSE
Current Station
Personal Weather Station
Location: Gaborone, SOUTH-EAST
Elevation: 3212 ft
Nearby Weather Stations

Elev 3212 ft 24.68 °S, 25.95 °E | Updated 25 seconds ago

Clear
Clear
69.1 °F
Feels Like 69.1 °F
N
0.0
Wind Variable Wind from SW
Gusts 0.0 mph

Today
High -- | Low -- °F
--% Chance of Precip.
Yesterday
High -- | Low -- °F
Precip. -- in
Pressure 29.92 in
Visibility -9999.0 miles
Clouds
Dew Point 60 °F
Humidity 74%
Rainfall 0.00 in
Snow Depth Not available.
6:01 AM 6:58 PM
Waxing Crescent, 36% visible
METAR FBSK 140200Z VRB01KT CAVOK 22/15 Q1013 NOSIG
Pressure 29.92 in
Visibility -9999.0 miles
Clouds
Dew Point 60 °F
Humidity 74%
Rainfall 0.00 in
Snow Depth Not available.
6:01 AM 6:58 PM
Waxing Crescent, 36% visible
METAR FBSK 140200Z VRB01KT CAVOK 22/15 Q1013 NOSIG

10-Day Weather Forecast

No radar image for this location.
×

Almanac

Astronomy

Feb. 14, 2016 Rise Set
Actual Time
Civil Twilight
Nautical Twilight
Astronomical Twilight
Moon
Length of Visible Light
Length of Day
Tomorrow will be .
, % of the Moon is Illuminated

Today's Extremes

Country Highs Country Lows

Community

WunderPhotos

Upload Photos

1,892,730 photos uploaded!

WunderBlog® & News

Nearby

Air Quality

  Air Quality AQ Index Pollutant
Not available.

Snow Depth

Station Depth Elevation

Earthquake Activity

City Distance Mag. Time & Date
Minimum magnitude displayed is 2.5.

Coastal Water Temperatures

Place Temperature

Stations

Nearby Weather Stations

Station Location Temp. Windchill Dew Point Humidity Wind Precip. Elev Updated Type